Zangvil, Abraham (2010): Meteorological synoptical observations from station Sede Boqer (2009-12) [dataset]. The Jacob Blaustein Institutes for Desert Research, Sede Boqer, PANGAEA, https://doi.org/10.1594/PANGAEA.742982
Always quote citation above when using data! You can download the citation in several formats below.
Published: 2010-07-13 • DOI registered: 2010-08-10
Other version:
Zangvil, Abraham (2010): BSRN Station-to-archive file for station Sede Boqer (2009-12) [dataset]. ftp://ftp.bsrn.awi.de/sbo/sbo1209.dat.gz
Project(s):
Coverage:
Latitude: 30.859720 * Longitude: 34.779440
Date/Time Start: 2009-12-01T06:00:00 * Date/Time End: 2009-12-31T18:00:00
Minimum Elevation: 500.0 m * Maximum Elevation: 500.0 m
Event(s):
SBO (Sede Boqer) * Latitude: 30.859720 * Longitude: 34.779440 * Date/Time: 2003-01-01T00:00:00 * Elevation: 500.0 m * Location: Israel * Method/Device: Monitoring station (MONS) * Comment: BSRN station no: 43; Surface type: desert rock; Topography type: hilly, rural; Station scientist: Dr. Nurit Agam (agam@bgu.ac.il). ** Station closed 2012 **
Parameter(s):
| # | Name | Short Name | Unit | Principal Investigator | Method/Device | Comment |
|---|---|---|---|---|---|---|
| 1 | DATE/TIME | Date/Time | Geocode | |||
| 2 | Total cloud amount | N | code | Zangvil, Abraham | Visual observation | |
| 3 | Wind direction | dd | deg | Zangvil, Abraham | Anemometer | |
| 4 | Wind speed | ff | m/s | Zangvil, Abraham | Anemometer | |
| 5 | Temperature, air | TTT | °C | Zangvil, Abraham | Thermometer | |
| 6 | Dew/frost point | TdTdTd | °C | Zangvil, Abraham | Hygrometer (HYGRO) | |
| 7 | Present weather | ww | code | Zangvil, Abraham | Visual observation | |
| 8 | Past weather1 | W1 | code | Zangvil, Abraham | Visual observation | |
| 9 | Past weather2 | W2 | code | Zangvil, Abraham | Visual observation | |
| 10 | Low/middle cloud amount | Nh | code | Zangvil, Abraham | Visual observation | |
| 11 | Low cloud | CL | code | Zangvil, Abraham | Visual observation | |
| 12 | Middle cloud | CM | code | Zangvil, Abraham | Visual observation | |
| 13 | High cloud | CH | code | Zangvil, Abraham | Visual observation | |
| 14 | Code | Code | Zangvil, Abraham | YYGG9 IIiii Nddff 1SnTTT 2SnTdTdTd 3P0P0P0 4PPPP 7wwW1W2 8NhClCmCh 333 8NsChshs 8NsChshs 8NsChshs |
License:
Size:
365 data points
Data
| 1 Date/Time | 2 N [code] | 3 dd [deg] | 4 ff [m/s] | 5 TTT [°C] | 6 TdTdTd [°C] | 7 ww [code] | 8 W1 [code] | 9 W2 [code] | 10 Nh [code] | 11 CL [code] | 12 CM [code] | 13 CH [code] | 14 Code |
|---|---|---|---|---|---|---|---|---|---|---|---|---|---|
| 2009-12-01T06:00 | 1 | 150 | 5 | 13.6 | -4.0 | 0 | 0 | 0 | 1 | 01069 00474 11505 10136 71040 3//// 4//// 7//// 80001 333 8//// 8//// 8//// | |||
| 2009-12-01T18:00 | 0 | 50 | 7 | 14.0 | -1.0 | 01189 00474 00507 10140 21010 3//// 4//// 7//// 8//// 333 8//// 8//// 8//// | |||||||
| 2009-12-02T06:00 | 3 | 150 | 15 | 13.7 | 2.5 | 0 | 0 | 0 | 1 | 02069 00474 31515 10137 20025 3//// 4//// 7//// 80001 333 8//// 8//// 8//// | |||
| 2009-12-02T18:00 | 0 | 360 | 6 | 12.4 | 1.8 | 02189 00474 03606 10124 20018 3//// 4//// 7//// 8//// 333 8//// 8//// 8//// | |||||||
| 2009-12-03T18:00 | 0 | 340 | 6 | 13.6 | 8.8 | 03189 00474 03406 10136 20088 3//// 4//// 7//// 8//// 333 8//// 8//// 8//// | |||||||
| 2009-12-04T06:00 | 3 | 220 | 4 | 11.6 | 6.4 | 0 | 0 | 0 | 2 | 04069 00474 32204 10116 20064 3//// 4//// 7//// 80002 333 8//// 8//// 8//// | |||
| 2009-12-05T18:00 | 0 | 290 | 6 | 11.5 | 5.7 | 05189 00474 02906 10115 20057 3//// 4//// 7//// 8//// 333 8//// 8//// 8//// | |||||||
| 2009-12-06T18:00 | 0 | 250 | 6 | 11.4 | -0.5 | 06189 00474 02506 10114 21005 3//// 4//// 7//// 8//// 333 8//// 8//// 8//// | |||||||
| 2009-12-07T18:00 | 2 | 260 | 10 | 12.7 | 11.7 | 60 | 6 | 1 | 2 | 2 | 0 | 0 | 07189 00474 22610 10127 20117 3//// 4//// 76061 82200 333 8//// 8//// 8//// |
| 2009-12-08T06:00 | 4 | 270 | 10 | 11.7 | 10.3 | 2 | 6 | 1 | 4 | 2 | 0 | 0 | 08069 00474 42710 10117 20103 3//// 4//// 70261 84200 333 8//// 8//// 8//// |
| 2009-12-09T18:00 | 0 | 340 | 6 | 12.1 | 10.5 | 09189 00474 03406 10121 20105 3//// 4//// 7//// 8//// 333 8//// 8//// 8//// | |||||||
| 2009-12-10T06:00 | 6 | 50 | 7 | 9.3 | 8.3 | 6 | 4 | 0 | 0 | 10069 00474 60507 10093 20083 3//// 4//// 7//// 86400 333 8//// 8//// 8//// | |||
| 2009-12-10T18:00 | 0 | 320 | 6 | 9.4 | 8.0 | 10189 00474 03206 10094 20080 3//// 4//// 7//// 8//// 333 8//// 8//// 8//// | |||||||
| 2009-12-11T06:00 | 0 | 90 | 7 | 8.5 | 7.9 | 10 | 0 | 0 | 11069 00474 00907 10085 20079 3//// 4//// 71000 8//// 333 8//// 8//// 8//// | ||||
| 2009-12-11T18:00 | 0 | 230 | 7 | 11.8 | 5.3 | 11189 00474 02307 10118 20053 3//// 4//// 7//// 8//// 333 8//// 8//// 8//// | |||||||
| 2009-12-12T06:00 | 0 | 230 | 8 | 12.3 | 3.6 | 12069 00474 02308 10123 20036 3//// 4//// 7//// 8//// 333 8//// 8//// 8//// | |||||||
| 2009-12-12T18:00 | 0 | 250 | 8 | 12.6 | 3.2 | 12189 00474 02508 10126 20032 3//// 4//// 7//// 8//// 333 8//// 8//// 8//// | |||||||
| 2009-12-13T06:00 | 0 | 340 | 4 | 9.4 | 5.3 | 13069 00474 03404 10094 20053 3//// 4//// 7//// 8//// 333 8//// 8//// 8//// | |||||||
| 2009-12-13T18:00 | 0 | 50 | 6 | 8.6 | 2.5 | 13189 00474 00506 10086 20025 3//// 4//// 7//// 8//// 333 8//// 8//// 8//// | |||||||
| 2009-12-14T06:00 | 3 | 50 | 7 | 9.1 | 3.7 | 0 | 0 | 0 | 2 | 14069 00474 30507 10091 20037 3//// 4//// 7//// 80002 333 8//// 8//// 8//// | |||
| 2009-12-14T18:00 | 0 | 50 | 7 | 9.9 | 4.3 | 14189 00474 00507 10099 20043 3//// 4//// 7//// 8//// 333 8//// 8//// 8//// | |||||||
| 2009-12-15T18:00 | 0 | 140 | 7 | 11.4 | 5.8 | 15189 00474 01407 10114 20058 3//// 4//// 7//// 8//// 333 8//// 8//// 8//// | |||||||
| 2009-12-16T06:00 | 1 | 140 | 15 | 11.2 | 5.8 | 0 | 0 | 0 | 1 | 16069 00474 11415 10112 20058 3//// 4//// 7//// 80001 333 8//// 8//// 8//// | |||
| 2009-12-16T18:00 | 270 | 7 | 17.1 | -2.1 | 6 | 4 | 1 | 16189 00474 /2707 10171 21021 3//// 4//// 70641 8//// 333 8//// 8//// 8//// | |||||
| 2009-12-18T18:00 | 0 | 250 | 6 | 10.7 | 4.9 | 18189 00474 02506 10107 20049 3//// 4//// 7//// 8//// 333 8//// 8//// 8//// | |||||||
| 2009-12-19T06:00 | 0 | 230 | 7 | 13.3 | 4.0 | 19069 00474 02307 10133 20040 3//// 4//// 7//// 8//// 333 8//// 8//// 8//// | |||||||
| 2009-12-19T18:00 | 0 | 50 | 7 | 11.4 | 1.2 | 19189 00474 00507 10114 20012 3//// 4//// 7//// 8//// 333 8//// 8//// 8//// | |||||||
| 2009-12-20T06:00 | 1 | 0 | 0 | 10.2 | 4.3 | 0 | 0 | 0 | 1 | 20069 00474 10000 10102 20043 3//// 4//// 7//// 80001 333 8//// 8//// 8//// | |||
| 2009-12-20T18:00 | 2 | 0 | 0 | 11.2 | 3.2 | 2 | 4 | 0 | 0 | 20189 00474 20000 10112 20032 3//// 4//// 7//// 82400 333 8//// 8//// 8//// | |||
| 2009-12-21T06:00 | 2 | 360 | 6 | 10.4 | -0.7 | 0 | 0 | 0 | 2 | 21069 00474 23606 10104 21007 3//// 4//// 7//// 80002 333 8//// 8//// 8//// | |||
| 2009-12-21T18:00 | 8 | 290 | 9 | 16.9 | -9.5 | 8 | 4 | 21189 00474 82909 10169 21095 3//// 4//// 7//// 884// 333 8//// 8//// 8//// | |||||
| 2009-12-22T06:00 | 4 | 280 | 5 | 16.7 | 10.7 | 21 | 6 | 1 | 4 | 2 | 2 | 0 | 22069 00474 42805 10167 20107 3//// 4//// 72161 84220 333 8//// 8//// 8//// |
| 2009-12-23T06:00 | 0 | 0 | 0 | 8.7 | 7.8 | 23069 00474 00000 10087 20078 3//// 4//// 7//// 8//// 333 8//// 8//// 8//// | |||||||
| 2009-12-23T18:00 | 0 | 360 | 7 | 12.3 | 10.3 | 10 | 0 | 0 | 23189 00474 03607 10123 20103 3//// 4//// 71000 8//// 333 8//// 8//// 8//// | ||||
| 2009-12-24T06:00 | 0 | 0 | 0 | 9.9 | 8.5 | 10 | 4 | 0 | 24069 00474 00000 10099 20085 3//// 4//// 71040 8//// 333 8//// 8//// 8//// | ||||
| 2009-12-25T06:00 | 0 | 0 | 0 | 10.6 | 6.5 | 25069 00474 00000 10106 20065 3//// 4//// 7//// 8//// 333 8//// 8//// 8//// | |||||||
| 2009-12-25T18:00 | 0 | 340 | 5 | 12.1 | 11.0 | 10 | 0 | 0 | 25189 00474 03405 10121 20110 3//// 4//// 71000 8//// 333 8//// 8//// 8//// | ||||
| 2009-12-26T06:00 | 3 | 20 | 7 | 8.1 | 6.5 | 10 | 4 | 0 | 0 | 0 | 0 | 8 | 26069 00474 30207 10081 20065 3//// 4//// 71040 80008 333 8//// 8//// 8//// |
| 2009-12-26T18:00 | 1 | 320 | 6 | 13.8 | 7.4 | 0 | 0 | 0 | 8 | 26189 00474 13206 10138 20074 3//// 4//// 7//// 80008 333 8//// 8//// 8//// | |||
| 2009-12-27T06:00 | 3 | 360 | 3 | 8.7 | 3.3 | 0 | 0 | 0 | 2 | 27069 00474 33603 10087 20033 3//// 4//// 7//// 80002 333 8//// 8//// 8//// | |||
| 2009-12-27T18:00 | 0 | 20 | 5 | 10.5 | 4.2 | 27189 00474 00205 10105 20042 3//// 4//// 7//// 8//// 333 8//// 8//// 8//// | |||||||
| 2009-12-29T18:00 | 3 | 290 | 16 | 13.5 | 8.7 | 0 | 0 | 0 | 8 | 29189 00474 32916 10135 20087 3//// 4//// 7//// 80008 333 8//// 8//// 8//// | |||
| 2009-12-31T06:00 | 8 | 50 | 9 | 11.9 | 9.0 | 67 | 6 | 2 | 8 | 2 | 31069 00474 80509 10119 20090 3//// 4//// 76762 882// 333 8//// 8//// 8//// | ||
| 2009-12-31T18:00 | 5 | 320 | 8 | 13.6 | 11.9 | 5 | 2 | 0 | 0 | 31189 00474 53208 10136 20119 3//// 4//// 7//// 85200 333 8//// 8//// 8//// |
